createdAt,value
2018-03-14T00:00:47.745Z,5.47
2018-03-14T00:03:15.253Z,4.90
2018-03-14T00:05:42.728Z,5.00
2018-03-14T00:08:10.218Z,4.40
2018-03-14T00:10:37.693Z,4.87
2018-03-14T00:13:05.176Z,4.70
2018-03-14T00:15:32.660Z,5.07
2018-03-14T00:18:00.151Z,4.77
2018-03-14T00:20:27.630Z,4.63
2018-03-14T00:22:55.888Z,4.73
2018-03-14T00:25:23.366Z,4.80
2018-03-14T00:27:51.620Z,4.77
2018-03-14T00:30:19.101Z,4.83
2018-03-14T00:32:47.372Z,4.77
2018-03-14T00:35:15.652Z,4.73
2018-03-14T00:37:43.900Z,4.57
2018-03-14T00:40:11.397Z,5.00
2018-03-14T00:42:39.664Z,5.20
2018-03-14T00:45:07.931Z,5.07
2018-03-14T00:47:35.426Z,5.00
2018-03-14T00:50:02.913Z,5.10
2018-03-14T00:52:30.404Z,4.47
2018-03-14T00:54:57.896Z,4.30
2018-03-14T00:57:25.382Z,5.20
2018-03-14T00:59:52.854Z,4.90
2018-03-14T01:02:20.348Z,4.33
2018-03-14T01:04:48.605Z,4.40
2018-03-14T01:07:16.119Z,4.87
2018-03-14T01:09:43.641Z,5.17
2018-03-14T01:12:11.908Z,4.90
2018-03-14T01:14:39.390Z,4.50
2018-03-14T01:17:06.893Z,4.70
2018-03-14T01:19:34.381Z,5.40
2018-03-14T01:22:01.878Z,6.07
2018-03-14T01:24:29.365Z,5.97
2018-03-14T01:26:56.853Z,4.73
2018-03-14T01:29:24.352Z,5.70
2018-03-14T01:31:51.832Z,5.57
2018-03-14T01:34:19.317Z,6.10
2018-03-14T01:36:46.801Z,5.23
2018-03-14T01:39:15.074Z,5.37
2018-03-14T01:41:43.329Z,6.67
2018-03-14T01:44:10.824Z,5.97
2018-03-14T01:46:38.312Z,6.20
2018-03-14T01:49:05.818Z,6.40
2018-03-14T01:51:34.061Z,6.80
2018-03-14T01:54:01.545Z,6.30
2018-03-14T01:56:29.018Z,6.20
2018-03-14T01:58:57.269Z,5.90
2018-03-14T02:14:49.211Z,7.00
2018-03-14T02:17:17.442Z,6.83
2018-03-14T02:19:45.684Z,7.13
2018-03-14T02:22:13.150Z,7.00
2018-03-14T02:24:40.633Z,6.43
2018-03-14T02:27:08.096Z,6.60
2018-03-14T02:29:35.576Z,7.30
2018-03-14T02:32:03.045Z,6.30
2018-03-14T02:34:30.516Z,6.50
2018-03-14T02:37:01.567Z,6.20
2018-03-14T02:39:29.037Z,7.20
2018-03-14T02:41:56.500Z,6.23
2018-03-14T02:44:23.972Z,6.33
2018-03-14T02:46:51.436Z,5.47
2018-03-14T02:49:18.904Z,6.47
2018-03-14T02:51:46.366Z,6.03
2018-03-14T02:54:13.829Z,5.50
2018-03-14T02:56:41.293Z,6.50
2018-03-14T02:59:08.743Z,6.00
2018-03-14T03:01:36.209Z,5.40
2018-03-14T03:04:03.659Z,5.73
2018-03-14T03:06:31.130Z,5.73
2018-03-14T03:08:58.577Z,5.53
2018-03-14T03:11:26.044Z,5.60
2018-03-14T03:13:53.495Z,5.50
2018-03-14T03:16:20.956Z,5.47
2018-03-14T03:18:48.413Z,5.93
2018-03-14T03:21:15.876Z,5.50
2018-03-14T03:23:43.334Z,5.20
2018-03-14T03:26:10.799Z,5.10
2018-03-14T03:28:38.249Z,5.50
2018-03-14T03:31:05.721Z,5.57
2018-03-14T03:33:33.948Z,5.40
2018-03-14T03:36:01.413Z,5.67
2018-03-14T03:38:28.867Z,5.57
2018-03-14T03:40:56.403Z,5.43
2018-03-14T03:43:23.852Z,6.10
2018-03-14T03:45:51.327Z,5.57
2018-03-14T03:48:18.777Z,5.87
2018-03-14T03:50:46.245Z,5.80
2018-03-14T03:53:13.697Z,5.13
2018-03-14T03:55:41.166Z,5.57
2018-03-14T03:58:08.612Z,5.60
2018-03-14T04:00:36.097Z,5.30
2018-03-14T04:03:03.550Z,5.20
2018-03-14T04:05:31.007Z,4.80
2018-03-14T04:07:58.476Z,5.00
2018-03-14T04:10:25.933Z,5.50
2018-03-14T04:12:54.174Z,5.20
2018-03-14T04:15:21.631Z,6.17
2018-03-14T04:17:49.092Z,5.23
2018-03-14T04:20:16.548Z,5.27
2018-03-14T04:22:44.008Z,5.57
2018-03-14T04:25:11.570Z,6.17
2018-03-14T04:27:38.939Z,5.90
2018-03-14T04:30:06.401Z,6.20
2018-03-14T04:32:33.866Z,4.60
2018-03-14T04:35:01.328Z,5.87
2018-03-14T04:37:28.793Z,5.13
2018-03-14T04:39:56.244Z,5.10
2018-03-14T04:42:23.704Z,5.57
2018-03-14T04:44:51.154Z,5.60
2018-03-14T04:47:18.620Z,4.80
2018-03-14T04:49:46.073Z,5.60
2018-03-14T04:52:13.551Z,6.03
2018-03-14T04:54:41.765Z,5.73
2018-03-14T04:57:09.228Z,5.00
2018-03-14T04:59:36.704Z,5.70
2018-03-14T05:02:04.194Z,5.50
2018-03-14T05:04:32.428Z,4.97
2018-03-14T05:06:59.909Z,6.10
2018-03-14T05:09:27.360Z,4.80
2018-03-14T05:11:54.810Z,5.50
2018-03-14T05:14:22.283Z,5.33
2018-03-14T05:16:49.732Z,5.70
2018-03-14T05:19:17.249Z,5.33
2018-03-14T05:21:44.703Z,5.07
2018-03-14T05:24:12.177Z,6.20
2018-03-14T05:26:39.676Z,6.37
2018-03-14T05:29:07.113Z,5.50
2018-03-14T05:31:34.576Z,6.30
2018-03-14T05:34:02.033Z,5.27
2018-03-14T05:39:03.520Z,5.57
2018-03-14T05:41:31.751Z,6.03
2018-03-14T05:43:59.224Z,5.30
2018-03-14T05:46:27.225Z,5.27
2018-03-14T05:48:54.687Z,5.50
2018-03-14T05:51:22.141Z,5.27
2018-03-14T05:53:49.620Z,5.30
2018-03-14T05:56:17.952Z,5.57
2018-03-14T05:58:45.490Z,5.67
2018-03-14T06:01:12.990Z,4.70
2018-03-14T06:03:40.454Z,5.43
2018-03-14T06:06:07.933Z,5.20
2018-03-14T06:08:36.176Z,5.60
2018-03-14T06:11:03.637Z,5.37
2018-03-14T06:13:31.108Z,5.73
2018-03-14T06:15:58.570Z,5.80
2018-03-14T06:18:26.063Z,5.07
2018-03-14T06:20:53.515Z,5.03
2018-03-14T06:23:20.980Z,5.30
2018-03-14T06:25:48.561Z,6.07
2018-03-14T06:28:16.031Z,5.60
2018-03-14T06:30:43.560Z,4.57
2018-03-14T06:33:11.137Z,6.17
2018-03-14T06:35:38.706Z,6.80
2018-03-14T06:38:06.573Z,5.90
2018-03-14T06:40:34.036Z,5.83
2018-03-14T06:43:01.521Z,6.13
2018-03-14T06:45:28.988Z,7.00
2018-03-14T06:47:57.222Z,6.77
2018-03-14T06:50:24.694Z,7.40
2018-03-14T06:52:52.146Z,6.20
2018-03-14T06:55:19.638Z,6.93
2018-03-14T06:57:47.873Z,7.27
2018-03-14T07:00:27.167Z,8.20
2018-03-14T07:03:06.498Z,7.00
2018-03-14T07:05:45.970Z,8.20
2018-03-14T07:08:13.442Z,7.80
2018-03-14T07:10:40.910Z,7.50
2018-03-14T07:13:08.367Z,7.30
2018-03-14T07:15:35.839Z,7.80
2018-03-14T07:18:04.085Z,5.73
2018-03-14T07:20:31.579Z,4.57
2018-03-14T07:22:59.838Z,5.00
2018-03-14T07:25:27.317Z,4.70
2018-03-14T07:27:55.558Z,5.13
2018-03-14T07:30:23.038Z,4.10
2018-03-14T07:32:50.525Z,4.00
2018-03-14T07:35:18.003Z,4.27
2018-03-14T07:37:45.480Z,5.20
2018-03-14T07:40:12.969Z,5.00
2018-03-14T07:42:40.493Z,4.53
2018-03-14T07:45:07.974Z,5.60
2018-03-14T07:47:35.455Z,5.33
2018-03-14T07:50:03.705Z,5.70
2018-03-14T07:52:31.169Z,5.30
2018-03-14T07:54:58.639Z,5.40
2018-03-14T07:57:26.113Z,6.53
2018-03-14T07:59:54.363Z,6.03
2018-03-14T08:02:21.881Z,5.60
2018-03-14T08:04:49.366Z,6.00
2018-03-14T08:07:16.849Z,6.10
2018-03-14T08:09:44.324Z,7.07
2018-03-14T08:12:11.831Z,6.93
2018-03-14T08:14:39.303Z,7.13
2018-03-14T08:17:06.820Z,7.10
2018-03-14T08:19:34.295Z,7.43
2018-03-14T08:22:01.817Z,6.77
2018-03-14T08:24:29.361Z,7.30
2018-03-14T08:26:57.654Z,6.00
2018-03-14T08:29:25.927Z,6.17
2018-03-14T08:31:54.222Z,6.20
2018-03-14T08:34:21.776Z,6.47
2018-03-14T08:36:49.289Z,5.57
2018-03-14T08:39:16.776Z,5.43
2018-03-14T08:41:45.058Z,4.13
2018-03-14T08:44:13.321Z,4.83
2018-03-14T08:46:40.846Z,5.63
2018-03-14T08:49:08.390Z,5.63
2018-03-14T08:51:35.906Z,5.20
2018-03-14T08:54:04.227Z,5.80
2018-03-14T08:56:31.739Z,5.60
2018-03-14T08:59:00.030Z,6.03
2018-03-14T09:01:27.550Z,6.40
2018-03-14T09:03:55.042Z,6.37
2018-03-14T09:06:22.566Z,6.03
2018-03-14T09:08:50.101Z,6.17
2018-03-14T09:11:17.601Z,5.53
2018-03-14T09:13:45.884Z,6.27
2018-03-14T09:16:14.178Z,6.10
2018-03-14T09:18:41.705Z,5.77
2018-03-14T09:21:09.205Z,5.97
2018-03-14T09:23:36.725Z,6.17
2018-03-14T09:26:04.236Z,4.43
2018-03-14T09:28:31.751Z,4.27
2018-03-14T09:31:00.032Z,4.40
2018-03-14T09:33:27.562Z,3.93
2018-03-14T09:35:55.074Z,3.93
2018-03-14T09:38:22.605Z,4.03
2018-03-14T09:40:50.903Z,4.50
2018-03-14T09:43:18.415Z,3.80
2018-03-14T09:45:45.927Z,3.80
2018-03-14T09:48:13.459Z,3.30
2018-03-14T09:50:41.736Z,3.93
2018-03-14T09:53:10.043Z,3.60
2018-03-14T09:55:37.558Z,3.60
2018-03-14T09:58:05.086Z,3.27
2018-03-14T10:00:32.602Z,3.30
2018-03-14T10:03:00.892Z,4.40
2018-03-14T10:05:28.426Z,3.63
2018-03-14T10:07:56.726Z,4.40
2018-03-14T10:10:24.266Z,3.93
2018-03-14T10:12:52.554Z,4.53
2018-03-14T10:15:20.855Z,4.20
2018-03-14T10:17:48.359Z,4.27
2018-03-14T10:20:15.872Z,4.03
2018-03-14T10:22:43.420Z,3.90
2018-03-14T10:25:10.948Z,4.17
2018-03-14T10:27:39.237Z,4.40
2018-03-14T10:30:07.519Z,4.03
2018-03-14T10:32:35.791Z,4.40
2018-03-14T10:35:04.070Z,4.10
2018-03-14T10:37:32.341Z,4.70
2018-03-14T10:40:00.623Z,3.90
2018-03-14T10:42:28.939Z,4.53
2018-03-14T10:44:57.175Z,4.50
2018-03-14T10:47:25.442Z,4.10
2018-03-14T10:49:53.745Z,5.40
2018-03-14T10:52:21.257Z,4.97
2018-03-14T10:54:48.780Z,4.43
2018-03-14T10:57:16.302Z,4.77
2018-03-14T10:59:44.585Z,4.20
2018-03-14T11:02:15.634Z,5.00
2018-03-14T11:04:43.150Z,5.17
2018-03-14T11:07:10.664Z,8.07
2018-03-14T11:09:38.168Z,4.90
2018-03-14T11:12:05.698Z,5.27
2018-03-14T11:14:33.245Z,4.20
2018-03-14T11:17:00.748Z,4.93
2018-03-14T11:19:28.286Z,4.53
2018-03-14T11:21:55.797Z,4.50
2018-03-14T11:24:23.334Z,4.30
2018-03-14T11:26:50.862Z,5.47
2018-03-14T11:29:18.365Z,4.70
2018-03-14T11:31:46.645Z,4.30
2018-03-14T11:34:14.905Z,4.70
2018-03-14T11:36:42.415Z,4.73
2018-03-14T11:39:09.914Z,4.30
2018-03-14T11:41:37.428Z,4.80
2018-03-14T11:44:04.929Z,4.10
2018-03-14T11:46:32.431Z,4.43
2018-03-14T11:48:59.950Z,4.60
2018-03-14T11:51:27.479Z,5.30
2018-03-14T11:53:54.987Z,4.37
2018-03-14T11:56:23.274Z,4.17
2018-03-14T11:58:51.549Z,4.40
2018-03-14T12:01:19.069Z,4.50
2018-03-14T12:03:46.574Z,7.43
2018-03-14T12:06:14.094Z,6.60
2018-03-14T12:08:41.589Z,4.37
2018-03-14T12:11:09.110Z,5.07
2018-03-14T12:13:36.648Z,4.60
2018-03-14T12:16:04.164Z,4.07
2018-03-14T12:18:31.720Z,4.37
2018-03-14T12:20:59.237Z,3.80
2018-03-14T12:23:26.754Z,4.07
2018-03-14T12:25:54.274Z,3.67
2018-03-14T12:28:21.767Z,4.17
2018-03-14T12:30:49.320Z,4.17
2018-03-14T12:33:16.818Z,3.40
2018-03-14T12:35:44.329Z,3.63
2018-03-14T12:38:11.896Z,3.60
2018-03-14T12:40:39.354Z,3.27
2018-03-14T12:43:06.876Z,4.10
2018-03-14T12:45:34.379Z,2.90
2018-03-14T12:48:01.914Z,3.00
2018-03-14T12:50:30.230Z,3.53
2018-03-14T12:52:58.445Z,3.63
2018-03-14T12:55:25.966Z,3.50
2018-03-14T12:57:53.515Z,3.17
2018-03-14T13:00:21.010Z,3.40
2018-03-14T13:02:49.311Z,3.73
2018-03-14T13:05:16.825Z,3.60
2018-03-14T13:07:44.360Z,3.00
2018-03-14T13:10:11.857Z,4.17
2018-03-14T13:12:39.387Z,3.40
2018-03-14T13:15:06.913Z,3.33
2018-03-14T13:17:35.183Z,3.37
2018-03-14T13:20:03.497Z,3.53
2018-03-14T13:22:31.048Z,3.30
2018-03-14T13:24:58.623Z,3.23
2018-03-14T13:27:26.162Z,3.83
2018-03-14T13:29:53.706Z,2.90
2018-03-14T13:32:21.975Z,3.60
2018-03-14T13:34:49.493Z,3.10
2018-03-14T13:37:17.005Z,4.77
2018-03-14T13:39:45.309Z,3.37
2018-03-14T13:42:12.819Z,3.27
2018-03-14T13:44:40.337Z,3.37
2018-03-14T13:47:07.830Z,3.30
2018-03-14T13:49:35.338Z,3.30
2018-03-14T13:52:02.822Z,3.63
2018-03-14T13:54:30.334Z,2.93
2018-03-14T13:56:58.593Z,3.20
2018-03-14T13:59:26.110Z,3.03
2018-03-14T14:01:53.602Z,2.90
2018-03-14T14:04:21.169Z,2.90
2018-03-14T14:06:48.673Z,3.10
2018-03-14T14:09:16.219Z,2.83
2018-03-14T14:11:43.726Z,2.70
2018-03-14T14:14:11.254Z,2.90
2018-03-14T14:16:38.762Z,3.23
2018-03-14T14:19:07.043Z,2.60
2018-03-14T14:21:34.550Z,2.77
2018-03-14T14:24:02.080Z,3.40
2018-03-14T14:26:29.572Z,2.80
2018-03-14T14:28:57.086Z,2.67
2018-03-14T14:31:24.601Z,2.10
2018-03-14T14:33:52.221Z,2.70
2018-03-14T14:36:19.726Z,2.60
2018-03-14T14:38:47.264Z,2.60
2018-03-14T14:41:14.795Z,2.67
2018-03-14T14:43:42.335Z,2.90
2018-03-14T14:46:10.620Z,3.43
2018-03-14T14:48:38.161Z,2.40
2018-03-14T14:51:05.682Z,2.70
2018-03-14T14:53:33.235Z,2.20
2018-03-14T14:56:01.474Z,3.00
2018-03-14T14:58:29.754Z,3.40
2018-03-14T15:00:57.305Z,3.00
2018-03-14T15:03:25.607Z,2.50
2018-03-14T15:05:53.115Z,3.00
2018-03-14T15:08:20.656Z,3.00
2018-03-14T15:10:48.174Z,2.73
2018-03-14T15:13:15.747Z,2.80
2018-03-14T15:15:43.253Z,2.97
2018-03-14T15:18:10.796Z,3.20
2018-03-14T15:20:38.346Z,3.00
2018-03-14T15:23:05.882Z,3.27
2018-03-14T15:25:33.403Z,3.17
2018-03-14T15:28:00.902Z,3.43
2018-03-14T15:30:28.407Z,3.00
2018-03-14T15:32:55.987Z,3.00
2018-03-14T15:35:24.279Z,3.00
2018-03-14T15:37:51.751Z,3.13
2018-03-14T15:40:19.305Z,3.27
2018-03-14T15:42:46.821Z,2.60
2018-03-14T15:45:14.375Z,3.30
2018-03-14T15:47:44.099Z,3.40
2018-03-14T15:50:11.626Z,3.30
2018-03-14T15:52:39.166Z,3.60
2018-03-14T15:55:06.706Z,3.40
2018-03-14T15:57:34.260Z,3.00
2018-03-14T16:00:02.529Z,2.90
2018-03-14T16:02:30.773Z,3.00
2018-03-14T16:04:58.270Z,3.43
2018-03-14T16:07:26.583Z,3.87
2018-03-14T16:09:54.058Z,3.43
2018-03-14T16:12:21.541Z,3.63
2018-03-14T16:14:49.008Z,3.23
2018-03-14T16:17:17.286Z,3.00
2018-03-14T16:19:44.798Z,3.57
2018-03-14T16:22:12.301Z,3.57
2018-03-14T16:24:40.550Z,3.10
2018-03-14T16:27:08.041Z,3.47
2018-03-14T16:29:36.281Z,3.00
2018-03-14T16:32:03.785Z,3.13
2018-03-14T16:34:31.264Z,3.37
2018-03-14T16:36:58.776Z,2.70
2018-03-14T16:39:26.232Z,3.13
2018-03-14T16:41:53.722Z,2.63
2018-03-14T16:44:21.180Z,2.50
2018-03-14T16:46:48.650Z,3.03
2018-03-14T16:49:16.106Z,2.90
2018-03-14T16:51:43.573Z,2.60
2018-03-14T16:54:11.082Z,2.67
2018-03-14T16:56:38.556Z,3.43
2018-03-14T16:59:06.785Z,5.20
2018-03-14T17:01:34.808Z,4.10
2018-03-14T17:04:04.030Z,3.30
2018-03-14T17:06:31.543Z,3.10
2018-03-14T17:08:59.846Z,3.37
2018-03-14T17:11:27.400Z,3.83
2018-03-14T17:13:55.949Z,3.93
2018-03-14T17:16:23.498Z,4.17
2018-03-14T17:18:51.285Z,3.60
2018-03-14T17:21:19.639Z,3.60
2018-03-14T17:23:49.017Z,3.80
2018-03-14T17:26:16.489Z,3.40
2018-03-14T17:28:44.040Z,3.77
2018-03-14T17:31:11.507Z,3.33
2018-03-14T17:33:39.021Z,3.63
2018-03-14T17:36:07.253Z,3.93
2018-03-14T17:38:34.763Z,3.23
2018-03-14T17:41:02.303Z,5.53
2018-03-14T17:43:29.943Z,5.43
2018-03-14T17:45:57.426Z,5.57
2018-03-14T17:48:25.696Z,6.10
2018-03-14T17:50:53.969Z,4.50
2018-03-14T17:53:21.451Z,5.10
2018-03-14T17:55:48.973Z,5.57
2018-03-14T17:58:16.460Z,4.93
2018-03-14T18:00:44.704Z,4.90
2018-03-14T18:03:12.249Z,4.43
2018-03-14T18:05:39.688Z,4.37
2018-03-14T18:08:07.140Z,3.87
2018-03-14T18:10:34.623Z,3.63
2018-03-14T18:13:02.091Z,4.23
2018-03-14T18:15:29.557Z,3.97
2018-03-14T18:17:57.022Z,4.50
2018-03-14T18:20:25.275Z,4.17
2018-03-14T18:22:52.764Z,3.60
2018-03-14T18:25:21.000Z,4.60
2018-03-14T18:27:48.457Z,3.47
2018-03-14T18:30:15.930Z,4.53
2018-03-14T18:32:43.403Z,5.43
2018-03-14T18:35:10.869Z,6.20
2018-03-14T18:37:39.103Z,5.23
2018-03-14T18:40:06.572Z,5.47
2018-03-14T18:42:34.036Z,5.07
2018-03-14T18:45:01.506Z,5.00
2018-03-14T18:47:28.963Z,3.90
2018-03-14T18:49:56.443Z,4.47
2018-03-14T18:52:24.662Z,5.60
2018-03-14T18:54:52.140Z,4.50
2018-03-14T18:57:19.602Z,4.70
2018-03-14T18:59:47.071Z,5.00
2018-03-14T19:02:14.544Z,5.00
2018-03-14T19:04:42.772Z,5.20
2018-03-14T19:07:10.250Z,5.27
2018-03-14T19:09:37.719Z,5.30
2018-03-14T19:12:05.220Z,5.10
2018-03-14T19:14:32.697Z,5.80
2018-03-14T19:17:00.157Z,4.97
2018-03-14T19:19:27.632Z,5.10
2018-03-14T19:21:55.106Z,5.00
2018-03-14T19:24:23.334Z,5.00
2018-03-14T19:26:50.804Z,4.07
2018-03-14T19:29:18.282Z,4.53
2018-03-14T19:31:45.769Z,4.80
2018-03-14T19:34:14.064Z,3.33
2018-03-14T19:36:41.554Z,5.37
2018-03-14T19:39:09.033Z,4.87
2018-03-14T19:41:36.504Z,4.63
2018-03-14T19:44:03.965Z,5.07
2018-03-14T19:46:31.431Z,4.37
2018-03-14T19:48:59.655Z,5.27
2018-03-14T19:51:27.163Z,5.83
2018-03-14T19:53:55.402Z,6.23
2018-03-14T19:56:23.813Z,5.77
2018-03-14T19:58:51.251Z,4.17
2018-03-14T20:01:18.799Z,3.70
2018-03-14T20:03:46.298Z,4.63
2018-03-14T20:06:14.563Z,4.73
2018-03-14T20:08:42.081Z,5.10
2018-03-14T20:11:09.596Z,4.33
2018-03-14T20:13:38.283Z,5.27
2018-03-14T20:16:06.543Z,4.57
2018-03-14T20:18:34.022Z,4.53
2018-03-14T20:21:01.527Z,4.20
2018-03-14T20:23:29.020Z,5.00
2018-03-14T20:25:57.286Z,4.70
2018-03-14T20:28:24.774Z,5.00
2018-03-14T20:30:53.026Z,5.13
2018-03-14T20:33:20.561Z,4.70
2018-03-14T20:35:48.033Z,5.23
2018-03-14T20:38:15.546Z,5.20
2018-03-14T20:40:43.031Z,5.87
2018-03-14T20:43:10.527Z,5.30
2018-03-14T20:45:38.806Z,5.70
2018-03-14T20:48:07.057Z,5.00
2018-03-14T20:50:34.511Z,4.67
2018-03-14T20:53:01.999Z,4.53
2018-03-14T20:55:30.233Z,4.80
2018-03-14T20:57:57.738Z,4.60
2018-03-14T21:00:26.020Z,4.40
2018-03-14T21:02:54.261Z,4.67
2018-03-14T21:05:22.506Z,4.90
2018-03-14T21:07:49.983Z,4.40
2018-03-14T21:10:17.447Z,4.23
2018-03-14T21:12:44.915Z,3.03
2018-03-14T21:15:12.376Z,2.40
2018-03-14T21:17:39.856Z,3.07
2018-03-14T21:20:08.098Z,3.50
2018-03-14T21:22:35.579Z,3.27
2018-03-14T21:25:03.808Z,3.30
2018-03-14T21:27:31.294Z,3.10
2018-03-14T21:29:58.759Z,3.33
2018-03-14T21:32:26.234Z,3.30
2018-03-14T21:34:54.469Z,2.90
2018-03-14T21:37:22.713Z,2.97
2018-03-14T21:39:50.180Z,3.23
2018-03-14T21:42:17.647Z,3.73
2018-03-14T21:44:45.123Z,4.50
2018-03-14T21:47:12.587Z,5.67
2018-03-14T21:49:40.058Z,3.87
2018-03-14T21:52:07.512Z,3.97
2018-03-14T21:54:34.981Z,3.80
2018-03-14T21:57:15.078Z,3.30
2018-03-14T21:59:42.547Z,3.07
2018-03-14T22:02:10.009Z,2.83
2018-03-14T22:04:37.483Z,3.03
2018-03-14T22:07:04.943Z,2.50
2018-03-14T22:09:32.425Z,2.63
2018-03-14T22:12:00.810Z,2.90
2018-03-14T22:14:28.133Z,3.17
2018-03-14T22:16:55.593Z,3.37
2018-03-14T22:19:23.101Z,2.87
2018-03-14T22:21:50.550Z,2.50
2018-03-14T22:24:18.011Z,2.40
2018-03-14T22:26:45.467Z,2.70
2018-03-14T22:29:12.925Z,2.80
2018-03-14T22:31:40.381Z,2.87
2018-03-14T22:34:07.840Z,2.60
2018-03-14T22:36:35.298Z,2.80
2018-03-14T22:39:02.756Z,2.70
2018-03-14T22:41:30.218Z,3.17
2018-03-14T22:43:57.690Z,3.43
2018-03-14T22:46:25.148Z,3.00
2018-03-14T22:48:52.609Z,2.60
2018-03-14T22:51:20.086Z,3.17
2018-03-14T22:53:47.548Z,3.07
2018-03-14T22:56:15.005Z,2.83
2018-03-14T22:58:42.487Z,2.67
2018-03-14T23:01:09.945Z,2.67
2018-03-14T23:03:38.160Z,2.67
2018-03-14T23:06:05.632Z,2.67
2018-03-14T23:08:33.110Z,2.20
2018-03-14T23:11:00.569Z,2.67
2018-03-14T23:13:28.021Z,2.60
2018-03-14T23:15:55.485Z,2.43
2018-03-14T23:18:22.946Z,2.47
2018-03-14T23:20:50.416Z,2.70
2018-03-14T23:23:17.877Z,2.33
2018-03-14T23:25:46.122Z,2.50
2018-03-14T23:28:13.576Z,2.70
2018-03-14T23:30:41.043Z,2.37
2018-03-14T23:33:08.491Z,2.40
2018-03-14T23:35:35.964Z,2.40
2018-03-14T23:38:03.420Z,2.47
2018-03-14T23:40:30.896Z,2.07
2018-03-14T23:42:59.129Z,2.13
2018-03-14T23:45:26.606Z,2.30
2018-03-14T23:47:54.069Z,2.20
2018-03-14T23:50:21.529Z,2.37
2018-03-14T23:52:48.981Z,2.13
2018-03-14T23:55:16.434Z,2.60
2018-03-14T23:57:43.898Z,2.27
